Oakdale, WI (54649)

6:17 AM CDT on August 25, 2016 (GMT -0500)
Volk | | Change Station

Elev 909 ft 43.94 °N, 90.25 °W | Updated 19 minutes ago

Mostly Cloudy
Mostly Cloudy
59 °F
Feels Like 59 °F
N
5
Wind Variable Wind from WNW

Today
High -- | Low -- °F
--% Chance of Precip.
Yesterday
High -- | Low -- °F
Precip. -- in
Pressure 30.02 in
Visibility 10.0 miles
Clouds Scattered Clouds 15000 ft
Mostly Cloudy 20000 ft
Dew Point 59 °F
Humidity 100%
Rainfall 0.00 in
Snow Depth Not available.
6:17 AM 7:48 PM
Waning Gibbous, 46% visible
METAR KVOK 251058Z 30004KT 10SM SCT150 BKN200 15/15 A3002 RMK AO2A SLP166
Pressure 30.02 in
Visibility 10.0 miles
Clouds Scattered Clouds 15000 ft
Mostly Cloudy 20000 ft
Dew Point 59 °F
Humidity 100%
Rainfall 0.00 in
Snow Depth Not available.
6:17 AM 7:48 PM
Waning Gibbous, 46% visible
METAR KVOK 251058Z 30004KT 10SM SCT150 BKN200 15/15 A3002 RMK AO2A SLP166

10-Day Weather Forecast

Almanac

Astronomy

Aug. 25, 2016 Rise Set
Actual Time
Civil Twilight
Nautical Twilight
Astronomical Twilight
Moon
Length of Visible Light
Length of Day
Tomorrow will be .
, % of the Moon is Illuminated

Today's Extremes

State Highs State Lows

Community

WunderPhotos

Upload Photos

1,934,822 photos uploaded!

WunderBlog® & News

Nearby

Air Quality

  Air Quality AQ Index Pollutant
Not available.

Snow Depth

Station Depth Elevation

Earthquake Activity

City Distance Mag. Time & Date
Minimum magnitude displayed is 2.5.

Coastal Water Temperatures

Place Temperature

Stations

Nearby Weather Stations

Station Location Temp. Windchill Dew Point Humidity Wind Precip. Elev Updated Type
                   

Watches & Warnings

There are currently no watches in effect.